Time;durP1;ratioP1;P1;durP2;ratioP2;P2;SDS_P1;SDS_P2;PMS_P1;PMS_P2;Temp;Humidity;BMP_temperature;BMP_pressure;BME280_temperature;BME280_humidity;BME280_pressure;Samples;Min_cycle;Max_cycle;Signal;HPM_P1;HPM_P2
2023/11/22 00:02:47;;;;;;;58.70;28.40;;;;;;;-144.73;95.59;86833.23;110544;1273;22831;-57
2023/11/22 00:05:33;;;;;;;52.70;28.00;;;;;;;-144.73;95.90;86832.84;110543;1256;22228;-56
2023/11/22 00:08:19;;;;;;;60.10;29.00;;;;;;;-144.73;96.02;86837.98;110521;1274;22112;-58
2023/11/22 00:11:05;;;;;;;53.30;27.10;;;;;;;-144.73;96.72;86831.25;110563;1267;22936;-56
2023/11/22 00:13:55;;;;;;;53.40;27.50;;;;;;;-144.73;97.32;86848.65;110538;1260;22135;-56
2023/11/22 00:16:43;;;;;;;51.80;25.20;;;;;;;-144.73;97.85;86853.00;110558;1273;22130;-59
2023/11/22 00:19:30;;;;;;;50.80;26.30;;;;;;;-144.73;98.32;86858.54;110572;1269;23148;-57
2023/11/22 00:22:17;;;;;;;49.10;26.00;;;;;;;-144.73;98.39;86849.45;110504;1273;22139;-59
2023/11/22 00:25:04;;;;;;;53.10;27.20;;;;;;;-144.73;98.78;86853.00;110520;1255;22162;-56
2023/11/22 00:27:50;;;;;;;52.80;27.10;;;;;;;-144.73;98.97;86855.38;110574;1273;22155;-57
2023/11/22 00:30:36;;;;;;;55.60;28.60;;;;;;;-144.73;99.38;86854.19;110525;1266;22987;-58
2023/11/22 00:33:23;;;;;;;53.90;27.20;;;;;;;-144.73;99.42;86861.31;110609;1266;22320;-56
2023/11/22 00:36:09;;;;;;;53.90;26.30;;;;;;;-144.73;99.79;86863.29;110560;1269;22983;-58
2023/11/22 00:38:55;;;;;;;55.30;23.80;;;;;;;-144.73;99.99;86862.09;110483;1274;22239;-55
2023/11/22 00:41:42;;;;;;;50.20;25.90;;;;;;;-144.73;100.00;86836.79;110575;1273;22139;-56
2023/11/22 00:44:28;;;;;;;51.30;27.40;;;;;;;-144.73;100.00;86849.05;110627;1273;22153;-56
2023/11/22 00:47:16;;;;;;;45.00;25.00;;;;;;;-144.73;100.00;86841.14;110586;1273;22196;-58
2023/11/22 00:50:04;;;;;;;44.00;24.20;;;;;;;-144.73;100.00;86862.89;110583;1273;22221;-56
2023/11/22 00:52:50;;;;;;;43.10;23.80;;;;;;;-144.73;100.00;86867.63;110609;1273;23048;-56
2023/11/22 00:55:36;;;;;;;45.20;23.40;;;;;;;-144.73;100.00;86854.20;111135;1253;22142;-57
2023/11/22 00:58:22;;;;;;;43.30;22.40;;;;;;;-144.73;100.00;86866.05;110628;1272;22145;-56
2023/11/22 01:01:08;;;;;;;37.30;21.10;;;;;;;-144.73;100.00;86861.70;110611;1273;22902;-58
2023/11/22 01:03:54;;;;;;;42.10;23.80;;;;;;;-144.73;100.00;86861.70;110605;1272;22240;-58
2023/11/22 01:06:41;;;;;;;47.60;25.20;;;;;;;-144.73;100.00;86868.83;110627;1272;22819;-57
2023/11/22 01:09:28;;;;;;;38.30;21.30;;;;;;;-144.73;100.00;86867.64;110716;1253;22313;-57
2023/11/22 01:12:14;;;;;;;43.50;22.80;;;;;;;-144.73;100.00;86866.45;110580;1272;22119;-55
2023/11/22 01:15:00;;;;;;;37.90;21.10;;;;;;;-144.73;100.00;86856.96;110623;1272;22197;-58
2023/11/22 01:17:46;;;;;;;34.80;19.60;;;;;;;-144.73;100.00;86878.70;110606;1272;22241;-56
2023/11/22 01:20:32;;;;;;;40.10;21.30;;;;;;;-144.73;100.00;86871.59;110609;1272;22188;-58
2023/11/22 01:23:19;;;;;;;39.40;21.80;;;;;;;-144.73;100.00;86861.70;110598;1272;22229;-57
2023/11/22 01:26:05;;;;;;;40.30;22.70;;;;;;;-144.73;100.00;86862.49;110521;1268;22353;-56
2023/11/22 01:28:52;;;;;;;40.00;21.10;;;;;;;-144.73;100.00;86856.55;110495;1269;22384;-58
2023/11/22 01:31:39;;;;;;;41.50;21.10;;;;;;;-144.73;100.00;86861.31;110433;1256;22316;-56
2023/11/22 01:34:25;;;;;;;39.40;21.00;;;;;;;-144.73;100.00;86885.44;110577;1268;22153;-55
2023/11/22 01:37:12;;;;;;;43.70;22.80;;;;;;;-144.73;100.00;86870.02;110533;1273;22381;-58
2023/11/22 01:39:58;;;;;;;36.10;20.60;;;;;;;-144.73;100.00;86868.83;110476;1273;22320;-58
2023/11/22 01:42:44;;;;;;;43.80;20.70;;;;;;;-144.73;100.00;86862.89;110676;1266;22374;-59
2023/11/22 01:45:30;;;;;;;43.70;21.50;;;;;;;-144.73;100.00;86878.70;110525;1274;22113;-57
2023/11/22 01:48:17;;;;;;;34.50;20.60;;;;;;;-144.73;100.00;86871.59;110510;1269;22114;-57
2023/11/22 01:51:04;;;;;;;42.70;22.40;;;;;;;-144.73;100.00;86883.45;110536;1255;22210;-57
2023/11/22 01:53:54;;;;;;;40.30;23.60;;;;;;;-144.73;100.00;86865.66;110578;1252;22369;-56
2023/11/22 01:56:40;;;;;;;38.60;22.50;;;;;;;-144.73;100.00;86858.94;110511;1268;23142;-55
2023/11/22 01:59:29;;;;;;;38.50;21.70;;;;;;;-144.73;100.00;86857.36;110457;1274;22136;-56
2023/11/22 02:02:15;;;;;;;39.30;20.80;;;;;;;-144.73;100.00;86873.56;110706;1265;22390;-56
2023/11/22 02:05:02;;;;;;;37.40;21.70;;;;;;;-144.73;100.00;86850.63;110581;1253;22336;-58
2023/11/22 02:07:49;;;;;;;49.80;24.20;;;;;;;-144.73;100.00;86847.86;110487;1269;22432;-58
2023/11/22 02:10:36;;;;;;;40.20;22.90;;;;;;;-144.73;100.00;86846.28;110574;1268;22152;-56
2023/11/22 02:13:22;;;;;;;47.80;24.60;;;;;;;-144.73;100.00;86867.64;110573;1266;22138;-57
2023/11/22 02:16:08;;;;;;;43.20;23.40;;;;;;;-144.73;100.00;86852.21;110540;1270;22139;-58
2023/11/22 02:18:55;;;;;;;43.80;23.60;;;;;;;-144.73;100.00;86849.45;110494;1274;22156;-57
2023/11/22 02:21:41;;;;;;;43.00;23.60;;;;;;;-144.73;100.00;86844.70;110621;1257;22424;-58
2023/11/22 02:24:27;;;;;;;46.80;24.70;;;;;;;-144.73;100.00;86843.91;110407;1275;22809;-58
2023/11/22 02:27:13;;;;;;;44.50;25.60;;;;;;;-144.73;100.00;86861.31;110469;1270;22323;-57
2023/11/22 02:29:59;;;;;;;49.40;26.70;;;;;;;-144.73;100.00;86862.89;110456;1274;22121;-59
2023/11/22 02:32:45;;;;;;;51.40;24.90;;;;;;;-144.73;100.00;86849.45;110455;1275;22123;-59
2023/11/22 02:35:32;;;;;;;43.30;24.90;;;;;;;-144.73;100.00;86852.21;110375;1275;22191;-58
2023/11/22 02:38:18;;;;;;;45.90;24.00;;;;;;;-144.73;100.00;86847.08;110395;1275;22229;-57
2023/11/22 02:41:04;;;;;;;47.40;23.60;;;;;;;-144.73;100.00;86864.48;110388;1275;22181;-59
2023/11/22 02:43:50;;;;;;;44.90;24.70;;;;;;;-144.73;100.00;86839.16;110426;1269;22670;-57
2023/11/22 02:46:36;;;;;;;44.30;23.80;;;;;;;-144.73;100.00;86835.20;110456;1275;22211;-57
2023/11/22 02:49:24;;;;;;;45.20;26.80;;;;;;;-144.73;100.00;86845.10;110482;1275;22130;-58
2023/11/22 02:52:11;;;;;;;44.10;23.20;;;;;;;-144.73;100.00;86847.08;110471;1275;22199;-57
2023/11/22 02:54:58;;;;;;;44.10;23.30;;;;;;;-144.73;100.00;86837.58;110456;1275;22110;-59
2023/11/22 02:57:45;;;;;;;44.40;24.40;;;;;;;-144.73;100.00;86846.27;110257;1275;22249;-55
2023/11/22 03:00:31;;;;;;;41.80;23.80;;;;;;;-144.73;100.00;86838.77;110459;1275;22231;-59
2023/11/22 03:03:17;;;;;;;42.80;22.30;;;;;;;-144.73;100.00;86845.09;110550;1257;22133;-59
2023/11/22 03:06:04;;;;;;;43.80;23.40;;;;;;;-144.73;100.00;86837.18;110472;1275;22132;-57
2023/11/22 03:08:50;;;;;;;47.70;24.10;;;;;;;-144.73;100.00;86843.12;110469;1275;22132;-61
2023/11/22 03:11:36;;;;;;;39.50;21.30;;;;;;;-144.73;100.00;86853.40;110479;1275;22152;-59
2023/11/22 03:14:23;;;;;;;41.10;23.10;;;;;;;-144.73;100.00;86851.42;110454;1275;22859;-56
2023/11/22 03:17:09;;;;;;;48.00;25.90;;;;;;;-144.73;100.00;86843.11;110437;1270;22146;-59
2023/11/22 03:19:57;;;;;;;40.60;22.10;;;;;;;-144.73;100.00;86847.86;110451;1262;22329;-58
2023/11/22 03:22:43;;;;;;;46.90;25.40;;;;;;;-144.73;100.00;86837.58;110416;1270;22149;-58
2023/11/22 03:25:30;;;;;;;42.50;23.70;;;;;;;-144.73;100.00;86827.69;110621;1255;22667;-58
2023/11/22 03:28:17;;;;;;;43.40;23.50;;;;;;;-144.73;100.00;86835.60;110612;1268;22915;-58
2023/11/22 03:31:05;;;;;;;44.20;24.30;;;;;;;-144.73;100.00;86845.09;110559;1258;22239;-59
2023/11/22 03:33:51;;;;;;;39.70;23.70;;;;;;;-144.73;100.00;86839.95;110458;1274;22763;-58
2023/11/22 03:36:40;;;;;;;44.60;22.50;;;;;;;-144.73;100.00;86849.45;110504;1257;22180;-56
2023/11/22 03:39:26;;;;;;;46.90;24.30;;;;;;;-144.73;100.00;86845.48;110420;1270;22307;-58
2023/11/22 03:42:13;;;;;;;37.00;21.50;;;;;;;-144.73;100.00;86850.23;110447;1274;22296;-56
2023/11/22 03:44:59;;;;;;;37.10;22.10;;;;;;;-144.73;100.00;86834.41;110556;1262;22389;-56
2023/11/22 03:47:45;;;;;;;37.00;20.50;;;;;;;-144.73;100.00;86840.35;110598;1267;22305;-56
2023/11/22 03:50:32;;;;;;;38.90;21.90;;;;;;;-144.73;100.00;86826.50;110353;1271;22139;-57
2023/11/22 03:53:21;;;;;;;41.00;22.10;;;;;;;-144.73;100.00;86829.27;110467;1260;22176;-58
2023/11/22 03:56:08;;;;;;;38.00;20.20;;;;;;;-144.73;100.00;86853.39;110574;1270;22330;-57
2023/11/22 03:58:54;;;;;;;40.60;21.00;;;;;;;-144.73;100.00;86864.08;110495;1275;22164;-56
2023/11/22 04:01:40;;;;;;;38.00;21.30;;;;;;;-144.73;100.00;86848.26;110492;1267;22313;-57
2023/11/22 04:04:27;;;;;;;37.00;19.30;;;;;;;-144.73;100.00;86846.67;110384;1275;22127;-57
2023/11/22 04:07:13;;;;;;;34.20;19.00;;;;;;;-144.73;100.00;86832.44;110417;1275;23016;-60
2023/11/22 04:09:59;;;;;;;35.30;19.60;;;;;;;-144.73;100.00;86839.16;110452;1270;22997;-59
2023/11/22 04:12:45;;;;;;;41.00;23.20;;;;;;;-144.73;100.00;86849.05;110384;1274;22168;-55
2023/11/22 04:15:32;;;;;;;33.40;19.60;;;;;;;-144.73;100.00;86835.20;110463;1264;22938;-55
2023/11/22 04:18:18;;;;;;;40.70;22.80;;;;;;;-144.73;100.00;86836.79;110464;1258;22331;-55
2023/11/22 04:21:05;;;;;;;36.10;21.10;;;;;;;-144.73;100.00;86848.26;110825;1258;22347;-56
2023/11/22 04:23:51;;;;;;;37.40;20.50;;;;;;;-144.73;100.00;86836.79;110530;1275;22096;-58
2023/11/22 04:26:37;;;;;;;41.20;22.00;;;;;;;-144.73;100.00;86849.05;110523;1275;22244;-58
2023/11/22 04:29:23;;;;;;;34.50;20.80;;;;;;;-144.73;100.00;86861.70;110519;1275;22122;-57
2023/11/22 04:32:10;;;;;;;39.50;22.30;;;;;;;-144.73;100.00;86850.23;110534;1275;22800;-59
2023/11/22 04:34:56;;;;;;;38.40;20.60;;;;;;;-144.73;100.00;86852.21;110497;1275;22127;-57
2023/11/22 04:37:42;;;;;;;36.10;20.50;;;;;;;-144.73;100.00;86849.84;110382;1275;22141;-60
2023/11/22 04:40:29;;;;;;;38.60;20.30;;;;;;;-144.73;100.00;86839.16;110464;1274;22275;-56
2023/11/22 04:43:16;;;;;;;39.90;21.50;;;;;;;-144.73;100.00;86850.63;110478;1275;22107;-59
2023/11/22 04:46:04;;;;;;;37.00;21.20;;;;;;;-144.73;100.00;86849.44;110505;1275;22137;-56
2023/11/22 04:48:51;;;;;;;43.80;22.10;;;;;;;-144.73;100.00;86841.14;110554;1257;22895;-57
2023/11/22 04:51:37;;;;;;;37.70;20.00;;;;;;;-144.73;100.00;86848.65;110485;1262;22242;-56
2023/11/22 04:54:23;;;;;;;39.40;20.70;;;;;;;-144.73;100.00;86839.56;110503;1275;22896;-60
2023/11/22 04:57:10;;;;;;;34.70;19.30;;;;;;;-144.73;100.00;86829.67;110471;1275;22156;-58
2023/11/22 04:59:56;;;;;;;38.00;20.30;;;;;;;-144.73;100.00;86851.42;110509;1275;22120;-58
2023/11/22 05:02:42;;;;;;;36.70;20.30;;;;;;;-144.73;100.00;86858.55;110500;1274;22131;-59
2023/11/22 05:05:28;;;;;;;39.40;19.90;;;;;;;-144.73;100.00;86862.50;110491;1274;22199;-58
2023/11/22 05:08:15;;;;;;;35.90;20.30;;;;;;;-144.73;100.00;86838.77;110474;1275;22762;-58
2023/11/22 05:11:01;;;;;;;38.80;21.30;;;;;;;-144.73;100.00;86841.14;110467;1268;22844;-58
2023/11/22 05:13:47;;;;;;;37.10;20.80;;;;;;;-144.73;100.00;86847.46;110506;1274;22170;-56
2023/11/22 05:16:33;;;;;;;36.90;20.30;;;;;;;-144.73;100.00;86862.10;110467;1275;22122;-56
2023/11/22 05:19:19;;;;;;;43.00;23.10;;;;;;;-144.73;100.00;86849.45;110481;1269;22770;-55
2023/11/22 05:22:05;;;;;;;41.20;23.00;;;;;;;-144.73;100.00;86857.75;110499;1273;22326;-56
2023/11/22 05:24:52;;;;;;;40.00;23.10;;;;;;;-144.73;100.00;86871.20;110428;1268;22989;-52
2023/11/22 05:27:38;;;;;;;41.30;21.70;;;;;;;-144.73;100.00;86864.48;110475;1274;22149;-52
2023/11/22 05:30:24;;;;;;;45.00;23.80;;;;;;;-144.73;100.00;86853.00;110391;1275;22126;-59
2023/11/22 05:33:10;;;;;;;51.20;25.70;;;;;;;-144.73;100.00;86851.41;110480;1264;22150;-59
2023/11/22 05:35:56;;;;;;;44.90;24.10;;;;;;;-144.73;100.00;86843.52;110577;1269;22990;-57
2023/11/22 05:38:42;;;;;;;46.40;25.80;;;;;;;-144.73;100.00;86847.07;110585;1256;22404;-60
2023/11/22 05:41:29;;;;;;;48.90;26.80;;;;;;;-144.73;100.00;86854.98;110491;1256;23189;-57
2023/11/22 05:44:15;;;;;;;42.30;24.60;;;;;;;-144.73;100.00;86845.09;110514;1267;22378;-60
2023/11/22 05:47:01;;;;;;;45.10;24.10;;;;;;;-144.73;100.00;86856.56;110479;1267;23043;-56
2023/11/22 05:49:48;;;;;;;43.60;24.10;;;;;;;-144.73;100.00;86848.66;110597;1258;22326;-60
2023/11/22 05:52:34;;;;;;;42.80;24.50;;;;;;;-144.73;100.00;86851.81;110543;1270;23058;-60
2023/11/22 05:55:22;;;;;;;45.00;23.20;;;;;;;-144.73;100.00;86846.27;110546;1273;22330;-60
2023/11/22 05:58:09;;;;;;;43.20;25.30;;;;;;;-144.73;100.00;86839.55;110495;1258;22245;-59
2023/11/22 06:00:55;;;;;;;42.60;25.00;;;;;;;-144.73;100.00;86854.58;110351;1259;22146;-58
2023/11/22 06:03:42;;;;;;;43.20;22.90;;;;;;;-144.73;100.00;86853.00;110518;1256;22824;-59
2023/11/22 06:06:29;;;;;;;40.00;25.20;;;;;;;-144.73;100.00;86818.59;110523;1274;22147;-59
2023/11/22 06:09:15;;;;;;;39.50;24.70;;;;;;;-144.73;100.00;86837.58;110581;1270;22973;-58
2023/11/22 06:12:01;;;;;;;44.10;23.40;;;;;;;-144.73;100.00;86845.09;110560;1275;22791;-56
2023/11/22 06:14:47;;;;;;;40.60;22.90;;;;;;;-144.73;100.00;86848.65;110426;1267;22170;-57
2023/11/22 06:17:33;;;;;;;34.00;19.70;;;;;;;-144.73;100.00;86828.09;110492;1271;22315;-58
2023/11/22 06:20:21;;;;;;;29.70;19.10;;;;;;;-144.73;100.00;86845.48;110488;1253;23067;-57
2023/11/22 06:23:08;;;;;;;26.10;16.40;;;;;;;-144.73;100.00;86859.73;110501;1268;22144;-58
2023/11/22 06:25:54;;;;;;;29.20;16.60;;;;;;;-144.73;100.00;86866.05;110434;1275;22145;-57
2023/11/22 06:28:41;;;;;;;24.50;14.10;;;;;;;-144.73;100.00;86857.35;110524;1257;22354;-59
2023/11/22 06:31:27;;;;;;;29.80;15.50;;;;;;;-144.73;100.00;86856.56;110497;1271;22154;-58
2023/11/22 06:34:13;;;;;;;26.20;15.40;;;;;;;-144.73;100.00;86862.10;110432;1272;22991;-59
2023/11/22 06:36:59;;;;;;;22.80;13.90;;;;;;;-144.73;100.00;86848.26;110288;1259;22313;-59
2023/11/22 06:39:46;;;;;;;27.70;16.10;;;;;;;-144.73;100.00;86846.67;110446;1259;23117;-55
2023/11/22 06:42:33;;;;;;;24.20;14.60;;;;;;;-144.73;100.00;86854.19;110446;1265;22350;-56
2023/11/22 06:45:21;;;;;;;24.20;13.90;;;;;;;-144.73;100.00;86864.48;110493;1261;22291;-58
2023/11/22 06:48:07;;;;;;;23.50;13.60;;;;;;;-144.73;100.00;86870.02;110467;1262;22346;-58
2023/11/22 06:50:53;;;;;;;25.60;12.80;;;;;;;-144.73;100.00;86870.41;110465;1265;22252;-59
2023/11/22 06:53:40;;;;;;;20.60;12.90;;;;;;;-144.73;100.00;86871.20;110497;1262;22348;-56
2023/11/22 06:56:27;;;;;;;20.70;12.50;;;;;;;-144.73;100.00;86878.71;110560;1261;22218;-59
2023/11/22 06:59:14;;;;;;;23.90;14.70;;;;;;;-144.73;100.00;86875.95;110467;1261;22223;-59
2023/11/22 07:02:00;;;;;;;22.60;13.70;;;;;;;-144.73;100.00;86895.33;110520;1259;22343;-59
2023/11/22 07:04:46;;;;;;;22.70;12.90;;;;;;;-144.73;100.00;86905.21;110483;1259;22930;-60
2023/11/22 07:07:33;;;;;;;21.80;13.10;;;;;;;-144.73;100.00;86900.46;110458;1265;22364;-57
2023/11/22 07:10:20;;;;;;;20.40;12.20;;;;;;;-144.73;100.00;86894.13;110433;1259;22213;-58
2023/11/22 07:13:07;;;;;;;19.40;11.70;;;;;;;-144.73;100.00;86909.16;110447;1259;22313;-59
2023/11/22 07:15:54;;;;;;;19.80;11.10;;;;;;;-144.73;100.00;86901.25;110443;1265;22195;-59
2023/11/22 07:18:40;;;;;;;20.50;11.70;;;;;;;-144.73;100.00;86887.02;110468;1265;22202;-56
2023/11/22 07:21:26;;;;;;;21.70;11.40;;;;;;;-144.73;100.00;86909.57;110456;1262;22345;-59
2023/11/22 07:24:15;;;;;;;22.30;11.80;;;;;;;-144.73;100.00;86916.67;110495;1259;22341;-56
2023/11/22 07:27:02;;;;;;;19.60;11.40;;;;;;;-144.73;100.00;86932.89;110464;1257;22329;-58
2023/11/22 07:29:52;;;;;;;18.10;10.70;;;;;;;-144.73;100.00;86913.91;110444;1259;22223;-57
2023/11/22 07:32:39;;;;;;;17.50;10.00;;;;;;;-144.73;100.00;86928.55;110481;1265;22334;-59
2023/11/22 07:35:28;;;;;;;16.40;9.70;;;;;;;-144.73;100.00;86903.63;110422;1268;22384;-56
2023/11/22 07:38:14;;;;;;;16.40;9.50;;;;;;;-144.73;100.00;86925.78;110474;1259;22327;-56
2023/11/22 07:41:01;;;;;;;14.30;9.00;;;;;;;-144.73;100.00;86915.89;110467;1259;23025;-59
2023/11/22 07:43:48;;;;;;;12.70;8.70;;;;;;;-144.73;100.00;86917.48;110442;1262;22967;-56
2023/11/22 07:46:37;;;;;;;16.80;8.90;;;;;;;-144.73;100.00;86913.52;110487;1262;22407;-57
2023/11/22 07:49:23;;;;;;;13.70;8.10;;;;;;;-144.73;100.00;86934.88;110465;1259;22966;-57
2023/11/22 07:52:13;;;;;;;15.70;8.80;;;;;;;-144.73;100.00;86928.55;110467;1262;22372;-57
2023/11/22 07:55:00;;;;;;;17.10;9.20;;;;;;;-144.73;100.00;86921.44;110498;1261;22244;-59
2023/11/22 07:57:49;;;;;;;13.10;8.00;;;;;;;-144.73;100.00;86928.55;110437;1259;22396;-57
2023/11/22 08:00:36;;;;;;;13.00;8.20;;;;;;;-144.73;99.96;86951.10;110319;1268;22307;-56
2023/11/22 08:03:25;;;;;;;14.80;9.30;;;;;;;-144.73;99.89;86948.33;110496;1260;22932;-57
2023/11/22 08:06:13;;;;;;;14.80;8.30;;;;;;;-144.73;99.88;86948.33;110445;1267;22805;-60
2023/11/22 08:09:01;;;;;;;15.20;8.40;;;;;;;-144.73;100.00;86951.48;110429;1267;22914;-58
2023/11/22 08:11:47;;;;;;;17.60;8.20;;;;;;;-144.73;100.00;86942.79;110487;1265;22103;-59
2023/11/22 08:14:34;;;;;;;14.60;8.90;;;;;;;-144.73;100.00;86927.36;110465;1262;23096;-60
2023/11/22 08:17:20;;;;;;;14.30;8.60;;;;;;;-144.73;99.99;86921.82;110489;1265;22332;-58
2023/11/22 08:20:12;;;;;;;15.20;9.30;;;;;;;-144.73;99.90;86921.02;110507;1259;22348;-57
2023/11/22 08:23:01;;;;;;;14.70;7.90;;;;;;;-144.73;99.78;86911.55;110462;1265;22327;-57
2023/11/22 08:25:47;;;;;;;12.90;7.60;;;;;;;-144.73;99.15;86937.65;110475;1263;22136;-60
2023/11/22 08:28:34;;;;;;;14.10;8.00;;;;;;;-144.73;99.38;86930.13;110500;1260;22369;-61
2023/11/22 08:31:20;;;;;;;15.50;8.30;;;;;;;-144.73;99.34;86930.92;110443;1262;22179;-58
2023/11/22 08:34:07;;;;;;;13.90;8.10;;;;;;;-144.73;99.18;86941.60;110481;1267;22171;-60
2023/11/22 08:36:54;;;;;;;13.10;7.80;;;;;;;-144.73;99.14;86937.25;110442;1257;22335;-58
2023/11/22 08:39:41;;;;;;;15.60;8.30;;;;;;;-144.73;99.11;86953.07;110453;1263;22204;-61
2023/11/22 08:42:27;;;;;;;21.70;9.50;;;;;;;-144.73;99.13;86932.51;110466;1259;22341;-60
2023/11/22 08:45:13;;;;;;;14.50;8.80;;;;;;;-144.73;99.28;86932.90;110461;1264;22190;-56
2023/11/22 08:48:00;;;;;;;14.50;9.00;;;;;;;-144.73;98.73;86945.16;110442;1262;22182;-61
2023/11/22 08:50:48;;;;;;;12.80;8.10;;;;;;;-144.73;98.59;86933.69;110494;1267;23112;-59
2023/11/22 08:53:34;;;;;;;14.80;9.10;;;;;;;-144.73;98.55;86936.45;110502;1258;22324;-60
2023/11/22 08:56:22;;;;;;;14.60;9.10;;;;;;;-144.73;98.82;86932.11;110503;1257;22255;-59
2023/11/22 08:59:08;;;;;;;16.20;9.90;;;;;;;-144.73;98.76;86934.09;110487;1259;23490;-57
2023/11/22 09:01:54;;;;;;;18.40;10.30;;;;;;;-144.73;98.76;86947.14;110492;1265;22203;-61
2023/11/22 09:04:41;;;;;;;15.70;8.70;;;;;;;-144.73;98.64;86938.04;110492;1260;22348;-60
2023/11/22 09:07:28;;;;;;;13.90;8.40;;;;;;;-144.73;98.62;86908.38;110492;1262;22370;-60
2023/11/22 09:10:14;;;;;;;16.10;10.00;;;;;;;-144.73;98.48;86910.36;110481;1262;23097;-56
2023/11/22 09:13:00;;;;;;;17.00;9.50;;;;;;;-144.73;98.53;86910.36;110525;1259;22314;-57
2023/11/22 09:15:47;;;;;;;16.90;9.20;;;;;;;-144.73;98.79;86904.02;110473;1267;22319;-57
2023/11/22 09:18:33;;;;;;;16.00;9.60;;;;;;;-144.73;98.62;86907.59;110459;1259;22371;-57
2023/11/22 09:21:21;;;;;;;16.80;8.70;;;;;;;-144.73;98.63;86906.40;110497;1259;22334;-55
2023/11/22 09:24:07;;;;;;;15.10;9.20;;;;;;;-144.73;98.90;86926.97;110463;1259;22408;-57
2023/11/22 09:26:53;;;;;;;14.20;9.10;;;;;;;-144.73;98.73;86939.62;110434;1265;22327;-57
2023/11/22 09:29:40;;;;;;;17.40;9.00;;;;;;;-144.73;98.69;86934.88;110486;1260;22210;-59
2023/11/22 09:32:27;;;;;;;16.50;9.00;;;;;;;-144.73;98.41;86914.70;110502;1259;22280;-59
2023/11/22 09:35:15;;;;;;;16.30;8.80;;;;;;;-144.73;98.11;86917.48;110419;1265;22347;-60
2023/11/22 09:38:03;;;;;;;17.50;9.30;;;;;;;-144.73;98.43;86926.58;110474;1257;22674;-59
2023/11/22 09:40:51;;;;;;;14.80;8.70;;;;;;;-144.73;98.53;86920.23;110454;1268;22198;-59
2023/11/22 09:43:39;;;;;;;13.40;8.90;;;;;;;-144.73;98.61;86937.65;110424;1265;22346;-56
2023/11/22 09:46:26;;;;;;;14.60;8.80;;;;;;;-144.73;98.60;86934.88;110465;1265;22206;-61
2023/11/22 09:49:19;;;;;;;15.00;8.10;;;;;;;-144.73;98.65;86947.53;110461;1257;22326;-61
2023/11/22 09:52:10;;;;;;;15.60;8.70;;;;;;;-144.73;98.69;86943.98;110410;1262;22336;-58
2023/11/22 09:54:57;;;;;;;13.50;8.30;;;;;;;-144.73;98.41;86928.95;110430;1258;22387;-59
2023/11/22 09:57:44;;;;;;;16.10;9.60;;;;;;;-144.73;98.39;86957.02;110288;1261;185676;-55
2023/11/22 10:00:31;;;;;;;14.50;9.00;;;;;;;-144.73;98.70;86953.86;110407;1269;22224;-57
2023/11/22 10:03:18;;;;;;;13.80;8.30;;;;;;;-144.73;98.93;86939.62;110373;1265;22172;-59
2023/11/22 10:06:05;;;;;;;13.20;8.00;;;;;;;-144.73;99.03;86936.46;110466;1267;22352;-57
2023/11/22 10:08:52;;;;;;;14.80;8.90;;;;;;;-144.73;98.57;86960.19;110446;1262;22120;-57
2023/11/22 10:11:43;;;;;;;13.90;8.90;;;;;;;-144.73;98.89;86953.08;110419;1259;23111;-57
2023/11/22 10:14:30;;;;;;;15.00;9.40;;;;;;;-144.73;99.29;86958.61;110467;1257;22416;-57
2023/11/22 10:17:16;;;;;;;14.50;8.40;;;;;;;-144.73;99.49;86964.54;110438;1263;22788;-59
2023/11/22 10:20:04;;;;;;;12.70;7.80;;;;;;;-144.73;99.60;86962.16;110431;1260;23106;-56
2023/11/22 10:22:50;;;;;;;16.20;9.00;;;;;;;-144.73;99.60;86955.44;110453;1259;22362;-57
2023/11/22 10:25:43;;;;;;;16.40;9.30;;;;;;;-144.73;99.61;86971.27;110409;1268;23206;-57
2023/11/22 10:28:30;;;;;;;15.30;7.60;;;;;;;-144.73;99.21;86965.73;110523;1257;22355;-57
2023/11/22 10:31:16;;;;;;;14.10;8.90;;;;;;;-144.73;98.98;86967.70;110501;1268;22293;-58
2023/11/22 10:34:03;;;;;;;15.00;7.20;;;;;;;-144.73;99.08;86954.26;110536;1257;22346;-58
2023/11/22 10:36:50;;;;;;;15.70;7.90;;;;;;;-144.73;98.73;86966.13;110444;1259;22125;-55
2023/11/22 10:39:37;;;;;;;15.80;7.30;;;;;;;-144.73;98.66;86968.89;110466;1265;22387;-56
2023/11/22 10:42:24;;;;;;;12.70;7.20;;;;;;;-144.73;98.58;86962.96;110441;1263;22316;-56
2023/11/22 10:45:12;;;;;;;14.50;7.60;;;;;;;-144.73;98.40;86981.55;110484;1265;22216;-60
2023/11/22 10:48:00;;;;;;;15.70;8.30;;;;;;;-144.73;98.09;86960.19;110497;1253;23201;-59
2023/11/22 10:50:47;;;;;;;13.40;7.90;;;;;;;-144.73;98.29;86972.05;110430;1260;22837;-61
2023/11/22 10:53:38;;;;;;;12.20;7.30;;;;;;;-144.73;98.21;86964.94;110480;1254;22415;-57
2023/11/22 10:56:25;;;;;;;15.50;7.50;;;;;;;-144.73;98.13;86969.29;110377;1259;23073;-59
2023/11/22 10:59:15;;;;;;;13.90;8.20;;;;;;;-144.73;98.01;86975.22;110445;1253;22221;-57
2023/11/22 11:02:04;;;;;;;13.90;7.90;;;;;;;-144.73;98.01;86961.77;110429;1265;23161;-55
2023/11/22 11:05:02;;;;;;;11.90;7.30;;;;;;;-144.73;98.06;86970.08;110474;1260;22421;-59
2023/11/22 11:08:16;;;;;;;14.00;7.40;;;;;;;-144.73;98.18;86962.17;110437;1260;22192;-56
2023/11/22 11:11:05;;;;;;;15.00;7.50;;;;;;;-144.73;97.66;86966.92;110467;1262;22322;-59
2023/11/22 11:13:52;;;;;;;16.20;8.50;;;;;;;-144.73;97.40;86971.66;110488;1259;23115;-56
2023/11/22 11:16:47;;;;;;;16.10;8.80;;;;;;;-144.73;97.43;86969.29;110470;1265;22323;-58
2023/11/22 11:19:34;;;;;;;15.10;8.10;;;;;;;-144.73;97.62;86958.21;110488;1260;23183;-58
2023/11/22 11:22:21;;;;;;;13.80;7.20;;;;;;;-144.73;97.10;86955.45;110462;1260;22287;-57
2023/11/22 11:25:08;;;;;;;12.40;6.90;;;;;;;-144.73;96.47;86966.91;110466;1265;23142;-57
2023/11/22 11:27:58;;;;;;;15.50;7.60;;;;;;;-144.73;96.21;86966.52;110507;1259;22187;-58
2023/11/22 11:30:48;;;;;;;12.70;7.00;;;;;;;-144.73;96.31;86960.59;110454;1268;23096;-58
2023/11/22 11:33:53;;;;;;;12.60;7.00;;;;;;;-144.73;96.66;86971.27;110431;1259;22958;-57
2023/11/22 11:36:40;;;;;;;12.90;6.90;;;;;;;-144.73;96.62;86963.75;110491;1259;23038;-58
2023/11/22 11:39:31;;;;;;;12.90;7.30;;;;;;;-144.73;96.41;86959.00;110473;1265;22211;-58
2023/11/22 11:42:18;;;;;;;14.20;7.70;;;;;;;-144.73;96.33;86946.34;110436;1265;22350;-59
2023/11/22 11:45:10;;;;;;;13.50;7.80;;;;;;;-144.73;95.98;86962.56;110409;1265;22853;-56
2023/11/22 11:47:56;;;;;;;15.30;8.70;;;;;;;-144.73;96.08;86964.94;110359;1260;22316;-58
2023/11/22 11:50:43;;;;;;;12.90;7.50;;;;;;;-144.73;96.24;86949.91;110386;1260;23105;-56
2023/11/22 11:53:31;;;;;;;12.80;7.50;;;;;;;-144.73;96.18;86966.92;110370;1269;22389;-58
2023/11/22 11:56:18;;;;;;;13.80;7.80;;;;;;;-144.73;96.12;86955.45;110401;1265;22839;-57
2023/11/22 11:59:06;;;;;;;16.40;8.60;;;;;;;-144.73;96.13;86971.66;110397;1260;23042;-57
2023/11/22 12:01:55;;;;;;;15.40;8.30;;;;;;;-144.73;96.50;86966.91;110392;1260;22308;-57
2023/11/22 12:04:43;;;;;;;13.30;8.00;;;;;;;-144.73;96.95;86958.21;110447;1265;22308;-59
2023/11/22 12:07:30;;;;;;;17.10;9.00;;;;;;;-144.73;96.55;86943.18;110403;1260;22319;-58
2023/11/22 12:10:16;;;;;;;13.50;8.00;;;;;;;-144.73;96.37;86965.73;110374;1263;22320;-59
2023/11/22 12:13:03;;;;;;;13.10;7.50;;;;;;;-144.73;96.26;86947.54;110375;1265;22108;-62
2023/11/22 12:15:53;;;;;;;16.20;8.80;;;;;;;-144.73;95.93;86960.59;110360;1266;22339;-59
2023/11/22 12:18:48;;;;;;;16.40;9.00;;;;;;;-144.73;95.98;86955.84;110366;1269;22343;-60
2023/11/22 12:21:35;;;;;;;15.70;8.90;;;;;;;-144.73;96.06;86966.13;110354;1261;22331;-60